sensor_id;sensor_type;location;lat;lon;timestamp;temperature;humidity
71297;SHT31;59082;50.658;4.608;2023-03-30T05:03:18;13.46;91.73
71297;SHT31;59082;50.658;4.608;2023-03-30T05:05:44;13.57;91.32
71297;SHT31;59082;50.658;4.608;2023-03-30T05:08:09;13.54;91.25
71297;SHT31;59082;50.658;4.608;2023-03-30T05:10:35;13.54;91.56
71297;SHT31;59082;50.658;4.608;2023-03-30T05:13:01;13.51;91.53
71297;SHT31;59082;50.658;4.608;2023-03-30T05:15:27;13.47;91.79
71297;SHT31;59082;50.658;4.608;2023-03-30T05:17:52;13.44;91.83
71297;SHT31;59082;50.658;4.608;2023-03-30T05:20:18;13.51;91.65
71297;SHT31;59082;50.658;4.608;2023-03-30T05:22:44;13.51;92.58
71297;SHT31;59082;50.658;4.608;2023-03-30T05:25:11;13.47;93.30
71297;SHT31;59082;50.658;4.608;2023-03-30T05:27:37;13.36;93.46
71297;SHT31;59082;50.658;4.608;2023-03-30T05:30:03;13.37;93.89
71297;SHT31;59082;50.658;4.608;2023-03-30T05:32:28;13.33;93.90
71297;SHT31;59082;50.658;4.608;2023-03-30T05:34:54;13.33;93.73
71297;SHT31;59082;50.658;4.608;2023-03-30T05:37:20;13.40;93.32
71297;SHT31;59082;50.658;4.608;2023-03-30T05:39:45;13.40;93.32
71297;SHT31;59082;50.658;4.608;2023-03-30T05:42:12;13.43;93.37
71297;SHT31;59082;50.658;4.608;2023-03-30T05:44:38;13.46;92.70
71297;SHT31;59082;50.658;4.608;2023-03-30T05:47:03;13.40;93.64
71297;SHT31;59082;50.658;4.608;2023-03-30T05:49:29;13.34;94.43
71297;SHT31;59082;50.658;4.608;2023-03-30T05:51:55;13.27;94.67
71297;SHT31;59082;50.658;4.608;2023-03-30T05:54:21;13.17;95.62
71297;SHT31;59082;50.658;4.608;2023-03-30T05:56:47;13.03;97.42
71297;SHT31;59082;50.658;4.608;2023-03-30T05:59:12;12.88;99.17
71297;SHT31;59082;50.658;4.608;2023-03-30T06:01:38;12.75;99.46
71297;SHT31;59082;50.658;4.608;2023-03-30T06:04:04;12.58;99.99
71297;SHT31;59082;50.658;4.608;2023-03-30T06:06:31;12.50;99.99
71297;SHT31;59082;50.658;4.608;2023-03-30T06:08:56;12.57;99.16
71297;SHT31;59082;50.658;4.608;2023-03-30T06:11:22;12.60;99.20
71297;SHT31;59082;50.658;4.608;2023-03-30T06:13:48;12.62;98.86
71297;SHT31;59082;50.658;4.608;2023-03-30T06:16:13;12.68;98.61
71297;SHT31;59082;50.658;4.608;2023-03-30T06:18:39;12.72;98.84
71297;SHT31;59082;50.658;4.608;2023-03-30T06:21:06;12.65;98.99
71297;SHT31;59082;50.658;4.608;2023-03-30T06:23:33;12.62;98.85
71297;SHT31;59082;50.658;4.608;2023-03-30T06:25:59;12.54;98.68
71297;SHT31;59082;50.658;4.608;2023-03-30T06:28:25;12.47;98.30
71297;SHT31;59082;50.658;4.608;2023-03-30T06:30:52;12.50;98.11
71297;SHT31;59082;50.658;4.608;2023-03-30T06:33:18;12.64;97.95
71297;SHT31;59082;50.658;4.608;2023-03-30T06:35:48;13.00;96.77
71297;SHT31;59082;50.658;4.608;2023-03-30T06:38:15;13.12;96.33
71297;SHT31;59082;50.658;4.608;2023-03-30T06:40:41;13.24;96.73
71297;SHT31;59082;50.658;4.608;2023-03-30T06:43:07;13.43;95.79
71297;SHT31;59082;50.658;4.608;2023-03-30T06:45:37;13.43;95.99
71297;SHT31;59082;50.658;4.608;2023-03-30T06:48:03;13.55;95.31
71297;SHT31;59082;50.658;4.608;2023-03-30T06:50:28;13.88;94.86
71297;SHT31;59082;50.658;4.608;2023-03-30T06:52:54;14.11;94.71
71297;SHT31;59082;50.658;4.608;2023-03-30T06:55:20;14.30;93.62
71297;SHT31;59082;50.658;4.608;2023-03-30T06:57:46;14.26;93.11
71297;SHT31;59082;50.658;4.608;2023-03-30T07:00:11;14.11;94.40
71297;SHT31;59082;50.658;4.608;2023-03-30T07:02:39;14.02;94.31
71297;SHT31;59082;50.658;4.608;2023-03-30T07:05:05;13.82;94.38
71297;SHT31;59082;50.658;4.608;2023-03-30T07:07:31;13.70;95.57
71297;SHT31;59082;50.658;4.608;2023-03-30T07:09:57;13.44;97.99
71297;SHT31;59082;50.658;4.608;2023-03-30T07:12:23;13.22;99.99
71297;SHT31;59082;50.658;4.608;2023-03-30T07:14:49;13.03;99.80
71297;SHT31;59082;50.658;4.608;2023-03-30T07:17:14;12.74;99.99
71297;SHT31;59082;50.658;4.608;2023-03-30T07:19:40;12.67;99.99
71297;SHT31;59082;50.658;4.608;2023-03-30T07:22:05;12.50;99.99
71297;SHT31;59082;50.658;4.608;2023-03-30T07:24:31;12.42;99.99
71297;SHT31;59082;50.658;4.608;2023-03-30T07:26:58;12.19;99.99
71297;SHT31;59082;50.658;4.608;2023-03-30T07:29:24;13.26;99.99
71297;SHT31;59082;50.658;4.608;2023-03-30T07:31:51;12.61;99.99
71297;SHT31;59082;50.658;4.608;2023-03-30T07:34:16;12.74;99.99
71297;SHT31;59082;50.658;4.608;2023-03-30T07:36:42;12.58;99.99
71297;SHT31;59082;50.658;4.608;2023-03-30T07:39:08;12.50;99.99
71297;SHT31;59082;50.658;4.608;2023-03-30T07:41:33;12.45;99.99
71297;SHT31;59082;50.658;4.608;2023-03-30T07:43:59;12.54;99.99
71297;SHT31;59082;50.658;4.608;2023-03-30T07:46:25;12.51;99.99
71297;SHT31;59082;50.658;4.608;2023-03-30T07:48:51;12.38;99.99
71297;SHT31;59082;50.658;4.608;2023-03-30T07:51:17;12.21;99.99
71297;SHT31;59082;50.658;4.608;2023-03-30T07:53:43;12.14;99.99
71297;SHT31;59082;50.658;4.608;2023-03-30T07:56:08;12.78;99.99
71297;SHT31;59082;50.658;4.608;2023-03-30T07:58:34;33.44;99.99
71297;SHT31;59082;50.658;4.608;2023-03-30T08:01:01;26.01;99.99
71297;SHT31;59082;50.658;4.608;2023-03-30T08:03:27;16.87;99.99
71297;SHT31;59082;50.658;4.608;2023-03-30T08:05:54;15.12;97.67
71297;SHT31;59082;50.658;4.608;2023-03-30T08:08:20;14.43;97.10
71297;SHT31;59082;50.658;4.608;2023-03-30T08:10:46;15.69;98.78
71297;SHT31;59082;50.658;4.608;2023-03-30T08:13:12;14.29;97.95
71297;SHT31;59082;50.658;4.608;2023-03-30T08:15:38;14.26;98.52
71297;SHT31;59082;50.658;4.608;2023-03-30T08:18:04;14.30;99.99
71297;SHT31;59082;50.658;4.608;2023-03-30T08:20:36;13.36;99.99
71297;SHT31;59082;50.658;4.608;2023-03-30T08:23:02;14.06;99.99
71297;SHT31;59082;50.658;4.608;2023-03-30T08:25:28;13.82;99.10
71297;SHT31;59082;50.658;4.608;2023-03-30T08:27:54;14.02;99.00
71297;SHT31;59082;50.658;4.608;2023-03-30T08:30:20;14.04;99.04
71297;SHT31;59082;50.658;4.608;2023-03-30T08:32:46;14.08;99.22
71297;SHT31;59082;50.658;4.608;2023-03-30T08:35:12;14.18;99.64
71297;SHT31;59082;50.658;4.608;2023-03-30T08:37:38;13.73;99.99
71297;SHT31;59082;50.658;4.608;2023-03-30T08:40:05;14.13;99.63
71297;SHT31;59082;50.658;4.608;2023-03-30T08:45:35;13.89;99.53
71297;SHT31;59082;50.658;4.608;2023-03-30T08:48:02;13.91;99.99
71297;SHT31;59082;50.658;4.608;2023-03-30T08:50:31;13.85;99.99
71297;SHT31;59082;50.658;4.608;2023-03-30T08:52:57;13.58;99.99
71297;SHT31;59082;50.658;4.608;2023-03-30T08:55:35;13.40;99.99
71297;SHT31;59082;50.658;4.608;2023-03-30T09:07:03;15.91;96.79
71297;SHT31;59082;50.658;4.608;2023-03-30T09:09:43;21.12;89.58
71297;SHT31;59082;50.658;4.608;2023-03-30T09:14:41;22.24;84.31
71297;SHT31;59082;50.658;4.608;2023-03-30T09:17:14;20.46;86.18
71297;SHT31;59082;50.658;4.608;2023-03-30T09:19:48;18.65;93.16
71297;SHT31;59082;50.658;4.608;2023-03-30T09:22:17;18.79;93.24
71297;SHT31;59082;50.658;4.608;2023-03-30T09:24:44;18.47;90.18
71297;SHT31;59082;50.658;4.608;2023-03-30T09:27:25;18.30;91.09
71297;SHT31;59082;50.658;4.608;2023-03-30T09:29:54;18.92;87.83
71297;SHT31;59082;50.658;4.608;2023-03-30T09:32:36;17.35;90.91
71297;SHT31;59082;50.658;4.608;2023-03-30T09:35:18;16.62;91.58
71297;SHT31;59082;50.658;4.608;2023-03-30T09:37:45;19.55;91.64
71297;SHT31;59082;50.658;4.608;2023-03-30T09:40:25;18.76;89.64
71297;SHT31;59082;50.658;4.608;2023-03-30T09:43:00;19.58;87.47
71297;SHT31;59082;50.658;4.608;2023-03-30T09:45:31;17.93;90.50
71297;SHT31;59082;50.658;4.608;2023-03-30T09:48:03;17.96;89.19
71297;SHT31;59082;50.658;4.608;2023-03-30T09:50:29;18.27;88.67
71297;SHT31;59082;50.658;4.608;2023-03-30T09:53:01;17.03;89.14
71297;SHT31;59082;50.658;4.608;2023-03-30T10:00:34;16.02;91.13
71297;SHT31;59082;50.658;4.608;2023-03-30T10:03:01;16.07;91.09
71297;SHT31;59082;50.658;4.608;2023-03-30T10:05:29;15.91;90.80
71297;SHT31;59082;50.658;4.608;2023-03-30T10:08:04;16.29;90.52
71297;SHT31;59082;50.658;4.608;2023-03-30T10:10:35;17.82;88.56
71297;SHT31;59082;50.658;4.608;2023-03-30T10:15:37;17.11;89.35
71297;SHT31;59082;50.658;4.608;2023-03-30T10:20:38;16.56;89.07
71297;SHT31;59082;50.658;4.608;2023-03-30T10:23:04;16.51;88.96
71297;SHT31;59082;50.658;4.608;2023-03-30T10:25:31;17.58;87.69
71297;SHT31;59082;50.658;4.608;2023-03-30T10:28:02;19.28;86.02
71297;SHT31;59082;50.658;4.608;2023-03-30T10:30:29;22.31;74.47
71297;SHT31;59082;50.658;4.608;2023-03-30T10:32:58;26.43;71.61
71297;SHT31;59082;50.658;4.608;2023-03-30T10:35:33;29.47;69.30
71297;SHT31;59082;50.658;4.608;2023-03-30T10:38:00;31.11;63.57
71297;SHT31;59082;50.658;4.608;2023-03-30T10:40:38;31.29;64.08
71297;SHT31;59082;50.658;4.608;2023-03-30T10:43:12;27.34;67.50
71297;SHT31;59082;50.658;4.608;2023-03-30T10:45:49;26.25;70.33
71297;SHT31;59082;50.658;4.608;2023-03-30T10:48:22;29.82;60.74
71297;SHT31;59082;50.658;4.608;2023-03-30T10:51:00;30.60;60.01
71297;SHT31;59082;50.658;4.608;2023-03-30T10:53:35;24.09;70.03
71297;SHT31;59082;50.658;4.608;2023-03-30T10:56:18;22.29;73.47
71297;SHT31;59082;50.658;4.608;2023-03-30T11:04:31;19.88;79.37
71297;SHT31;59082;50.658;4.608;2023-03-30T11:06:59;19.33;79.51
71297;SHT31;59082;50.658;4.608;2023-03-30T11:09:33;18.92;81.85
71297;SHT31;59082;50.658;4.608;2023-03-30T11:12:05;17.62;82.62
71297;SHT31;59082;50.658;4.608;2023-03-30T11:15:08;17.34;84.36
71297;SHT31;59082;50.658;4.608;2023-03-30T11:18:01;17.30;82.92
71297;SHT31;59082;50.658;4.608;2023-03-30T11:20:34;18.01;81.29
71297;SHT31;59082;50.658;4.608;2023-03-30T11:23:24;31.67;59.16
71297;SHT31;59082;50.658;4.608;2023-03-30T11:26:01;35.13;53.22
71297;SHT31;59082;50.658;4.608;2023-03-30T11:28:55;36.04;51.04
71297;SHT31;59082;50.658;4.608;2023-03-30T11:39:35;27.83;61.15
71297;SHT31;59082;50.658;4.608;2023-03-30T11:42:13;35.07;53.07
71297;SHT31;59082;50.658;4.608;2023-03-30T11:44:40;38.19;48.63
71297;SHT31;59082;50.658;4.608;2023-03-30T11:55:27;38.21;47.21
71297;SHT31;59082;50.658;4.608;2023-03-30T11:58:08;41.59;44.16
71297;SHT31;59082;50.658;4.608;2023-03-30T12:00:46;41.93;42.97
71297;SHT31;59082;50.658;4.608;2023-03-30T12:06:37;40.94;45.48
71297;SHT31;59082;50.658;4.608;2023-03-30T12:12:01;36.74;45.90
71297;SHT31;59082;50.658;4.608;2023-03-30T12:17:20;37.20;46.65
71297;SHT31;59082;50.658;4.608;2023-03-30T12:19:59;35.78;49.85
71297;SHT31;59082;50.658;4.608;2023-03-30T12:22:37;38.54;45.46
71297;SHT31;59082;50.658;4.608;2023-03-30T12:30:52;23.77;63.56
71297;SHT31;59082;50.658;4.608;2023-03-30T12:33:28;22.00;67.91
71297;SHT31;59082;50.658;4.608;2023-03-30T12:36:02;21.16;69.51
71297;SHT31;59082;50.658;4.608;2023-03-30T12:38:45;33.55;52.29
71297;SHT31;59082;50.658;4.608;2023-03-30T12:41:15;35.67;48.86
71297;SHT31;59082;50.658;4.608;2023-03-30T13:00:02;34.04;50.30
71297;SHT31;59082;50.658;4.608;2023-03-30T13:05:34;27.49;57.14
71297;SHT31;59082;50.658;4.608;2023-03-30T13:11:14;24.20;60.63
71297;SHT31;59082;50.658;4.608;2023-03-30T13:13:59;26.61;60.06
71297;SHT31;59082;50.658;4.608;2023-03-30T13:17:04;24.12;62.66
71297;SHT31;59082;50.658;4.608;2023-03-30T13:24:51;23.58;65.44
71297;SHT31;59082;50.658;4.608;2023-03-30T13:35:00;20.17;73.52
71297;SHT31;59082;50.658;4.608;2023-03-30T13:48:54;27.16;69.55
71297;SHT31;59082;50.658;4.608;2023-03-30T13:51:26;26.42;67.54
71297;SHT31;59082;50.658;4.608;2023-03-30T13:53:57;27.32;64.78
71297;SHT31;59082;50.658;4.608;2023-03-30T13:56:24;27.97;63.55
71297;SHT31;59082;50.658;4.608;2023-03-30T14:01:26;29.68;58.08
71297;SHT31;59082;50.658;4.608;2023-03-30T14:03:56;25.88;60.09
71297;SHT31;59082;50.658;4.608;2023-03-30T14:06:25;30.67;58.25
71297;SHT31;59082;50.658;4.608;2023-03-30T14:11:32;28.32;59.02
71297;SHT31;59082;50.658;4.608;2023-03-30T14:14:01;29.31;57.01
71297;SHT31;59082;50.658;4.608;2023-03-30T14:16:31;26.36;60.55
71297;SHT31;59082;50.658;4.608;2023-03-30T14:21:44;23.76;64.12
71297;SHT31;59082;50.658;4.608;2023-03-30T14:24:18;24.18;64.73
71297;SHT31;59082;50.658;4.608;2023-03-30T14:26:47;23.10;66.95
71297;SHT31;59082;50.658;4.608;2023-03-30T14:29:17;25.89;61.96
71297;SHT31;59082;50.658;4.608;2023-03-30T14:31:43;23.11;64.58
71297;SHT31;59082;50.658;4.608;2023-03-30T14:34:30;21.06;68.78
71297;SHT31;59082;50.658;4.608;2023-03-30T14:37:02;21.13;68.28
71297;SHT31;59082;50.658;4.608;2023-03-30T14:39:29;21.08;70.67
71297;SHT31;59082;50.658;4.608;2023-03-30T14:42:07;20.71;71.46
71297;SHT31;59082;50.658;4.608;2023-03-30T14:44:37;20.78;72.45
71297;SHT31;59082;50.658;4.608;2023-03-30T14:47:03;23.73;68.03
71297;SHT31;59082;50.658;4.608;2023-03-30T14:49:30;21.43;69.06
71297;SHT31;59082;50.658;4.608;2023-03-30T14:52:16;20.74;72.63
71297;SHT31;59082;50.658;4.608;2023-03-30T14:54:43;20.64;72.29
71297;SHT31;59082;50.658;4.608;2023-03-30T14:57:11;20.30;74.73
71297;SHT31;59082;50.658;4.608;2023-03-30T14:59:46;19.55;77.56
71297;SHT31;59082;50.658;4.608;2023-03-30T15:02:21;18.57;81.22
71297;SHT31;59082;50.658;4.608;2023-03-30T15:04:48;18.09;81.74
71297;SHT31;59082;50.658;4.608;2023-03-30T15:07:14;18.45;84.66
71297;SHT31;59082;50.658;4.608;2023-03-30T15:09:42;19.55;80.80
71297;SHT31;59082;50.658;4.608;2023-03-30T15:12:22;18.38;83.67
71297;SHT31;59082;50.658;4.608;2023-03-30T15:14:49;17.83;84.68
71297;SHT31;59082;50.658;4.608;2023-03-30T15:17:19;17.41;85.36
71297;SHT31;59082;50.658;4.608;2023-03-30T15:19:47;17.27;87.14
71297;SHT31;59082;50.658;4.608;2023-03-30T15:24:52;20.27;85.68
71297;SHT31;59082;50.658;4.608;2023-03-30T15:27:18;21.94;81.91
71297;SHT31;59082;50.658;4.608;2023-03-30T15:29:44;23.51;76.25
71297;SHT31;59082;50.658;4.608;2023-03-30T15:32:24;22.52;80.53
71297;SHT31;59082;50.658;4.608;2023-03-30T15:35:33;19.81;81.97
71297;SHT31;59082;50.658;4.608;2023-03-30T15:38:01;19.34;83.40
71297;SHT31;59082;50.658;4.608;2023-03-30T15:43:24;17.79;86.52
71297;SHT31;59082;50.658;4.608;2023-03-30T15:48:47;16.91;90.51
71297;SHT31;59082;50.658;4.608;2023-03-30T15:51:27;16.49;91.99
71297;SHT31;59082;50.658;4.608;2023-03-30T15:54:11;15.76;93.37
71297;SHT31;59082;50.658;4.608;2023-03-30T15:59:13;15.29;94.35
71297;SHT31;59082;50.658;4.608;2023-03-30T16:01:52;15.21;94.56
71297;SHT31;59082;50.658;4.608;2023-03-30T16:04:21;14.63;99.99
71297;SHT31;59082;50.658;4.608;2023-03-30T16:06:47;14.88;99.99
71297;SHT31;59082;50.658;4.608;2023-03-30T16:09:13;23.35;99.99
71297;SHT31;59082;50.658;4.608;2023-03-30T16:11:40;18.86;87.25
71297;SHT31;59082;50.658;4.608;2023-03-30T16:14:06;21.81;87.05
71297;SHT31;59082;50.658;4.608;2023-03-30T16:16:35;21.21;86.61
71297;SHT31;59082;50.658;4.608;2023-03-30T16:19:00;21.05;88.34
71297;SHT31;59082;50.658;4.608;2023-03-30T16:21:26;22.69;85.83
71297;SHT31;59082;50.658;4.608;2023-03-30T16:23:52;22.02;83.76
71297;SHT31;59082;50.658;4.608;2023-03-30T16:26:18;21.29;85.01
71297;SHT31;59082;50.658;4.608;2023-03-30T16:28:43;21.35;82.51
71297;SHT31;59082;50.658;4.608;2023-03-30T16:31:19;20.44;79.90
71297;SHT31;59082;50.658;4.608;2023-03-30T16:33:45;20.95;82.10
71297;SHT31;59082;50.658;4.608;2023-03-30T16:36:13;22.28;78.37
71297;SHT31;59082;50.658;4.608;2023-03-30T16:38:40;22.90;78.32
71297;SHT31;59082;50.658;4.608;2023-03-30T16:41:05;22.72;77.27
71297;SHT31;59082;50.658;4.608;2023-03-30T16:43:34;22.76;77.18
71297;SHT31;59082;50.658;4.608;2023-03-30T16:45:59;22.70;79.37
71297;SHT31;59082;50.658;4.608;2023-03-30T16:48:25;21.96;78.35
71297;SHT31;59082;50.658;4.608;2023-03-30T16:50:53;20.57;79.22
71297;SHT31;59082;50.658;4.608;2023-03-30T16:53:20;20.44;80.29
71297;SHT31;59082;50.658;4.608;2023-03-30T16:55:46;20.22;79.57
71297;SHT31;59082;50.658;4.608;2023-03-30T16:58:13;20.92;79.20
71297;SHT31;59082;50.658;4.608;2023-03-30T17:00:42;20.84;79.69
71297;SHT31;59082;50.658;4.608;2023-03-30T17:03:09;20.63;78.94
71297;SHT31;59082;50.658;4.608;2023-03-30T17:05:35;19.86;81.06
71297;SHT31;59082;50.658;4.608;2023-03-30T17:08:18;18.93;83.30
71297;SHT31;59082;50.658;4.608;2023-03-30T17:10:46;18.66;84.69
71297;SHT31;59082;50.658;4.608;2023-03-30T17:13:12;18.20;87.72
71297;SHT31;59082;50.658;4.608;2023-03-30T17:15:37;17.73;85.58
71297;SHT31;59082;50.658;4.608;2023-03-30T17:18:12;18.14;85.79
71297;SHT31;59082;50.658;4.608;2023-03-30T17:20:45;16.97;88.23
71297;SHT31;59082;50.658;4.608;2023-03-30T17:23:18;14.59;92.76
71297;SHT31;59082;50.658;4.608;2023-03-30T17:25:44;15.38;91.52
71297;SHT31;59082;50.658;4.608;2023-03-30T17:28:22;15.66;91.99
71297;SHT31;59082;50.658;4.608;2023-03-30T17:30:50;15.74;91.06
71297;SHT31;59082;50.658;4.608;2023-03-30T17:33:16;15.69;91.80
71297;SHT31;59082;50.658;4.608;2023-03-30T17:35:48;15.91;91.68
71297;SHT31;59082;50.658;4.608;2023-03-30T17:38:15;15.83;90.69
71297;SHT31;59082;50.658;4.608;2023-03-30T17:40:42;15.46;91.36
71297;SHT31;59082;50.658;4.608;2023-03-30T17:43:09;15.04;92.49
71297;SHT31;59082;50.658;4.608;2023-03-30T17:45:39;14.57;93.46
71297;SHT31;59082;50.658;4.608;2023-03-30T17:48:10;14.23;93.93
71297;SHT31;59082;50.658;4.608;2023-03-30T17:50:38;14.30;94.96
71297;SHT31;59082;50.658;4.608;2023-03-30T17:53:17;14.26;94.73
71297;SHT31;59082;50.658;4.608;2023-03-30T17:55:49;14.06;94.81
71297;SHT31;59082;50.658;4.608;2023-03-30T18:00:48;14.33;94.91
71297;SHT31;59082;50.658;4.608;2023-03-30T18:03:15;14.25;94.21
71297;SHT31;59082;50.658;4.608;2023-03-30T18:05:41;14.44;94.08
71297;SHT31;59082;50.658;4.608;2023-03-30T18:08:14;14.43;94.41
71297;SHT31;59082;50.658;4.608;2023-03-30T18:10:43;14.18;94.00
71297;SHT31;59082;50.658;4.608;2023-03-30T18:13:10;13.57;94.27
71297;SHT31;59082;50.658;4.608;2023-03-30T18:15:36;14.23;95.07
71297;SHT31;59082;50.658;4.608;2023-03-30T18:18:01;14.23;95.77
71297;SHT31;59082;50.658;4.608;2023-03-30T18:20:35;14.11;95.36
71297;SHT31;59082;50.658;4.608;2023-03-30T18:23:01;14.16;95.66
71297;SHT31;59082;50.658;4.608;2023-03-30T18:25:27;14.13;94.97
71297;SHT31;59082;50.658;4.608;2023-03-30T18:27:53;14.66;94.46
71297;SHT31;59082;50.658;4.608;2023-03-30T18:32:52;14.66;94.55
71297;SHT31;59082;50.658;4.608;2023-03-30T18:35:19;14.60;94.80
71297;SHT31;59082;50.658;4.608;2023-03-30T18:37:45;14.26;95.43
71297;SHT31;59082;50.658;4.608;2023-03-30T18:40:17;14.37;95.89
71297;SHT31;59082;50.658;4.608;2023-03-30T18:42:43;14.53;95.58
71297;SHT31;59082;50.658;4.608;2023-03-30T18:45:18;14.43;95.94
71297;SHT31;59082;50.658;4.608;2023-03-30T18:47:45;14.56;96.10
71297;SHT31;59082;50.658;4.608;2023-03-30T18:50:23;14.16;96.07
71297;SHT31;59082;50.658;4.608;2023-03-30T18:52:52;14.19;96.12
71297;SHT31;59082;50.658;4.608;2023-03-30T18:55:17;14.18;96.17
71297;SHT31;59082;50.658;4.608;2023-03-30T18:57:43;13.95;96.62
71297;SHT31;59082;50.658;4.608;2023-03-30T19:00:13;13.68;97.19
71297;SHT31;59082;50.658;4.608;2023-03-30T19:02:39;13.88;97.52
71297;SHT31;59082;50.658;4.608;2023-03-30T19:05:05;14.29;97.21
71297;SHT31;59082;50.658;4.608;2023-03-30T19:07:33;14.22;96.89
71297;SHT31;59082;50.658;4.608;2023-03-30T19:09:59;14.25;96.81
71297;SHT31;59082;50.658;4.608;2023-03-30T19:12:24;14.05;96.78
71297;SHT31;59082;50.658;4.608;2023-03-30T19:14:50;13.95;97.27
71297;SHT31;59082;50.658;4.608;2023-03-30T19:17:15;14.05;97.02
71297;SHT31;59082;50.658;4.608;2023-03-30T19:19:41;13.89;97.45
71297;SHT31;59082;50.658;4.608;2023-03-30T19:22:07;13.82;97.38
71297;SHT31;59082;50.658;4.608;2023-03-30T19:24:32;13.71;97.86
71297;SHT31;59082;50.658;4.608;2023-03-30T19:27:00;13.86;97.81
71297;SHT31;59082;50.658;4.608;2023-03-30T19:29:25;13.53;98.13
71297;SHT31;59082;50.658;4.608;2023-03-30T19:31:51;13.58;98.54
71297;SHT31;59082;50.658;4.608;2023-03-30T19:34:18;13.44;98.55
71297;SHT31;59082;50.658;4.608;2023-03-30T19:36:43;13.36;98.85
71297;SHT31;59082;50.658;4.608;2023-03-30T19:39:09;13.15;99.31
71297;SHT31;59082;50.658;4.608;2023-03-30T19:41:42;13.43;99.07
71297;SHT31;59082;50.658;4.608;2023-03-30T19:44:09;13.37;99.20
71297;SHT31;59082;50.658;4.608;2023-03-30T19:46:34;13.24;98.95
71297;SHT31;59082;50.658;4.608;2023-03-30T19:49:02;13.27;98.78
71297;SHT31;59082;50.658;4.608;2023-03-30T19:51:27;13.27;98.76
71297;SHT31;59082;50.658;4.608;2023-03-30T19:53:53;13.09;98.88
71297;SHT31;59082;50.658;4.608;2023-03-30T19:56:21;12.85;98.92
71297;SHT31;59082;50.658;4.608;2023-03-30T19:58:47;12.85;98.75
71297;SHT31;59082;50.658;4.608;2023-03-30T20:01:13;12.75;98.80
71297;SHT31;59082;50.658;4.608;2023-03-30T20:03:39;12.78;98.37
71297;SHT31;59082;50.658;4.608;2023-03-30T20:06:10;12.69;98.39
71297;SHT31;59082;50.658;4.608;2023-03-30T20:08:38;12.61;98.75
71297;SHT31;59082;50.658;4.608;2023-03-30T20:11:08;12.74;98.41
71297;SHT31;59082;50.658;4.608;2023-03-30T20:13:34;12.68;98.46
71297;SHT31;59082;50.658;4.608;2023-03-30T20:16:00;12.74;98.29
71297;SHT31;59082;50.658;4.608;2023-03-30T20:18:26;12.12;98.87
71297;SHT31;59082;50.658;4.608;2023-03-30T20:20:56;12.61;98.56
71297;SHT31;59082;50.658;4.608;2023-03-30T20:23:22;12.50;98.65
71297;SHT31;59082;50.658;4.608;2023-03-30T20:25:47;12.26;98.68
71297;SHT31;59082;50.658;4.608;2023-03-30T20:28:13;12.42;98.85
71297;SHT31;59082;50.658;4.608;2023-03-30T20:30:39;12.40;98.49
71297;SHT31;59082;50.658;4.608;2023-03-30T20:33:05;12.38;98.47
71297;SHT31;59082;50.658;4.608;2023-03-30T20:35:35;12.31;98.51
71297;SHT31;59082;50.658;4.608;2023-03-30T20:38:01;12.40;98.13
71297;SHT31;59082;50.658;4.608;2023-03-30T20:40:29;11.86;99.03
71297;SHT31;59082;50.658;4.608;2023-03-30T20:42:55;12.44;98.18
71297;SHT31;59082;50.658;4.608;2023-03-30T20:45:28;12.10;99.09
71297;SHT31;59082;50.658;4.608;2023-03-30T20:47:53;12.29;99.06
71297;SHT31;59082;50.658;4.608;2023-03-30T20:50:19;11.62;99.99
71297;SHT31;59082;50.658;4.608;2023-03-30T20:52:45;12.65;98.14
71297;SHT31;59082;50.658;4.608;2023-03-30T20:55:11;12.93;97.51
